Time;durP1;ratioP1;P1;durP2;ratioP2;P2;SDS_P1;SDS_P2;PMS_P1;PMS_P2;Temp;Humidity;BMP_temperature;BMP_pressure;BME280_temperature;BME280_humidity;BME280_pressure;Samples;Min_cycle;Max_cycle;Signal;HPM_P1;HPM_P2
2021/10/15 00:01:31;;;;;;;54.40;51.03;;;13.30;99.90;;;;;;4348930;33;20544;-65
2021/10/15 00:03:58;;;;;;;53.13;49.87;;;13.30;99.90;;;;;;4348372;33;20208;-65
2021/10/15 00:06:25;;;;;;;57.73;53.40;;;13.30;99.90;;;;;;4348445;33;20152;-65
2021/10/15 00:08:52;;;;;;;54.03;50.37;;;13.20;99.90;;;;;;4347557;33;20172;-65
2021/10/15 00:11:18;;;;;;;58.53;54.60;;;13.30;99.90;;;;;;4347232;33;20161;-65
2021/10/15 00:13:45;;;;;;;56.33;52.80;;;13.30;99.90;;;;;;4348508;33;20169;-65
2021/10/15 00:16:12;;;;;;;58.00;54.07;;;13.20;99.90;;;;;;4346878;33;20160;-65
2021/10/15 00:18:42;;;;;;;60.13;56.37;;;13.30;99.90;;;;;;4348611;33;20145;-65
2021/10/15 00:21:09;;;;;;;57.53;53.67;;;13.30;99.90;;;;;;4347989;33;20215;-65
2021/10/15 00:23:36;;;;;;;51.00;47.67;;;13.20;99.90;;;;;;4345866;33;20181;-65
2021/10/15 00:26:03;;;;;;;54.93;51.60;;;13.30;99.90;;;;;;4346482;33;20218;-66
2021/10/15 00:28:30;;;;;;;53.63;50.23;;;13.30;99.90;;;;;;4347778;33;20574;-65
2021/10/15 00:30:58;;;;;;;58.40;54.93;;;13.20;99.90;;;;;;4346776;33;20168;-66
2021/10/15 00:33:30;;;;;;;56.13;52.13;;;13.20;99.90;;;;;;4347176;33;20145;-67
2021/10/15 00:35:59;;;;;;;53.43;49.90;;;13.20;99.90;;;;;;4346650;33;20613;-65
2021/10/15 00:38:26;;;;;;;53.80;50.40;;;13.20;99.90;;;;;;4346766;33;20489;-66
2021/10/15 00:40:52;;;;;;;54.70;51.37;;;13.20;99.90;;;;;;4346508;33;20177;-65
2021/10/15 00:43:19;;;;;;;55.70;52.23;;;13.20;99.90;;;;;;4346411;33;20232;-65
2021/10/15 00:45:46;;;;;;;57.67;53.43;;;13.20;99.90;;;;;;4348304;33;20180;-65
2021/10/15 00:48:16;;;;;;;56.83;53.40;;;13.20;99.90;;;;;;4346348;33;20201;-64
2021/10/15 00:50:44;;;;;;;57.90;54.10;;;13.20;99.90;;;;;;4346621;33;20149;-65
2021/10/15 00:53:16;;;;;;;57.50;53.60;;;13.20;99.90;;;;;;4346308;33;20150;-65
2021/10/15 00:55:44;;;;;;;59.23;55.53;;;13.10;99.90;;;;;;4346642;33;20558;-66
2021/10/15 00:58:11;;;;;;;56.47;53.00;;;13.10;99.90;;;;;;4346377;33;20448;-66
2021/10/15 01:00:38;;;;;;;59.20;55.43;;;13.10;99.90;;;;;;4345435;33;20530;-65
2021/10/15 01:03:05;;;;;;;58.50;54.33;;;13.10;99.90;;;;;;4347436;33;20168;-65
2021/10/15 01:05:32;;;;;;;57.67;54.00;;;13.10;99.90;;;;;;4345844;33;20189;-64
2021/10/15 01:07:59;;;;;;;56.83;53.37;;;13.10;99.90;;;;;;4346173;33;20494;-67
2021/10/15 01:10:28;;;;;;;66.60;62.23;;;13.10;99.90;;;;;;4346932;33;20201;-65
2021/10/15 01:12:56;;;;;;;65.70;61.73;;;13.10;99.90;;;;;;4346462;33;20149;-65
2021/10/15 01:15:23;;;;;;;67.43;63.37;;;13.10;99.90;;;;;;4346611;33;20152;-65
2021/10/15 01:17:50;;;;;;;61.70;57.60;;;13.10;99.90;;;;;;4346425;33;20165;-65
2021/10/15 01:20:18;;;;;;;62.90;59.03;;;13.10;99.90;;;;;;4344947;33;20161;-68
2021/10/15 01:22:45;;;;;;;56.97;52.83;;;13.10;99.90;;;;;;4345585;33;20161;-68
2021/10/15 01:25:12;;;;;;;57.17;53.57;;;13.20;99.90;;;;;;4346446;33;20566;-68
2021/10/15 01:27:39;;;;;;;62.67;59.00;;;13.10;99.90;;;;;;4345523;33;20188;-65
2021/10/15 01:30:07;;;;;;;63.87;60.00;;;13.10;99.90;;;;;;4346194;33;20160;-66
2021/10/15 01:32:34;;;;;;;64.70;60.83;;;13.10;99.90;;;;;;4345661;33;20153;-65
2021/10/15 01:35:01;;;;;;;60.97;56.77;;;13.20;99.90;;;;;;4345409;33;20161;-65
2021/10/15 01:37:29;;;;;;;69.60;65.07;;;13.10;99.90;;;;;;4345626;33;20168;-68
2021/10/15 01:39:58;;;;;;;67.03;62.73;;;13.10;99.90;;;;;;4342933;33;20161;-66
2021/10/15 01:45:10;;;;;;;64.40;60.13;;;13.20;99.90;;;;;;4346116;33;20191;-67
2021/10/15 01:47:37;;;;;;;64.20;60.43;;;13.20;99.90;;;;;;4347446;33;20154;-65
2021/10/15 01:50:07;;;;;;;66.20;62.00;;;13.10;99.90;;;;;;4345412;33;20199;-66
2021/10/15 01:52:37;;;;;;;69.17;64.93;;;13.10;99.90;;;;;;4345340;33;20244;-65
2021/10/15 01:55:05;;;;;;;67.37;63.03;;;13.10;99.90;;;;;;4346840;33;20152;-64
2021/10/15 01:57:32;;;;;;;65.83;61.67;;;13.10;99.90;;;;;;4347485;33;20146;-67
2021/10/15 02:00:01;;;;;;;69.73;65.30;;;13.10;99.90;;;;;;4344977;33;20168;-66
2021/10/15 02:02:28;;;;;;;63.40;59.53;;;13.10;99.90;;;;;;4346085;33;20149;-65
2021/10/15 02:04:55;;;;;;;65.67;61.17;;;13.10;99.90;;;;;;4345092;33;20157;-65
2021/10/15 02:07:22;;;;;;;68.70;63.90;;;13.20;99.90;;;;;;4343858;33;20157;-65
2021/10/15 02:09:50;;;;;;;67.07;62.17;;;13.20;99.90;;;;;;4343768;33;20161;-64
2021/10/15 02:12:17;;;;;;;70.00;65.50;;;13.10;99.90;;;;;;4345096;33;20657;-65
2021/10/15 02:14:44;;;;;;;69.20;64.37;;;13.10;99.90;;;;;;4345928;33;20189;-67
2021/10/15 02:17:12;;;;;;;67.00;62.63;;;13.10;99.90;;;;;;4345741;33;20205;-65
2021/10/15 02:19:39;;;;;;;71.10;66.73;;;13.20;99.90;;;;;;4345215;33;20192;-65
2021/10/15 02:22:06;;;;;;;67.00;62.70;;;13.20;99.90;;;;;;4345596;33;20196;-65
2021/10/15 02:24:33;;;;;;;69.03;64.57;;;13.20;99.90;;;;;;4344208;33;20171;-65
2021/10/15 02:27:01;;;;;;;66.17;62.20;;;13.20;99.90;;;;;;4345076;33;20157;-65
2021/10/15 02:29:28;;;;;;;68.57;64.23;;;13.20;99.90;;;;;;4345125;33;20199;-67
2021/10/15 02:31:56;;;;;;;64.63;60.53;;;13.30;99.90;;;;;;4347827;33;20156;-65
2021/10/15 02:34:23;;;;;;;68.47;63.50;;;13.20;99.90;;;;;;4348494;33;20175;-65
2021/10/15 02:36:50;;;;;;;62.93;58.80;;;13.20;99.90;;;;;;4350265;33;20154;-65
2021/10/15 02:39:17;;;;;;;72.30;67.53;;;13.30;99.90;;;;;;4349553;33;20222;-65
2021/10/15 02:41:44;;;;;;;63.13;59.23;;;13.20;99.90;;;;;;4349512;33;20149;-65
2021/10/15 02:44:16;;;;;;;66.63;62.63;;;13.20;99.90;;;;;;4354717;33;20181;-65
2021/10/15 02:46:44;;;;;;;64.03;59.90;;;13.20;99.90;;;;;;4335311;33;20154;-68
2021/10/15 02:49:14;;;;;;;63.73;59.67;;;13.20;99.90;;;;;;4347117;33;20188;-67
2021/10/15 02:51:41;;;;;;;63.80;59.63;;;13.20;99.90;;;;;;4349222;33;20603;-67
2021/10/15 02:54:08;;;;;;;67.40;62.97;;;13.20;99.90;;;;;;4347683;33;20628;-65
2021/10/15 02:56:34;;;;;;;67.40;62.23;;;13.20;99.90;;;;;;4348140;33;20149;-65
2021/10/15 02:59:01;;;;;;;66.83;62.20;;;13.20;99.90;;;;;;4349222;33;20177;-66
2021/10/15 03:01:29;;;;;;;69.07;64.97;;;13.20;99.90;;;;;;4348268;33;20164;-65
2021/10/15 03:03:56;;;;;;;70.43;66.07;;;13.20;99.90;;;;;;4347842;33;20213;-67
2021/10/15 03:06:23;;;;;;;70.97;66.77;;;13.20;99.90;;;;;;4348020;33;20149;-65
2021/10/15 03:08:50;;;;;;;67.93;63.73;;;13.20;99.90;;;;;;4347691;33;20169;-65
2021/10/15 03:11:17;;;;;;;67.00;62.53;;;13.20;99.90;;;;;;4349212;33;20153;-66
2021/10/15 03:13:44;;;;;;;66.47;62.27;;;13.20;99.90;;;;;;4348100;33;20171;-65
2021/10/15 03:16:11;;;;;;;66.97;62.77;;;13.20;99.90;;;;;;4348836;33;20551;-65
2021/10/15 03:18:41;;;;;;;67.47;63.17;;;13.20;99.90;;;;;;4347513;33;20165;-64
2021/10/15 03:21:08;;;;;;;60.53;56.40;;;13.20;99.90;;;;;;4348021;33;20137;-67
2021/10/15 03:23:35;;;;;;;67.60;62.77;;;13.20;99.90;;;;;;4348552;33;20175;-65
2021/10/15 03:26:03;;;;;;;63.73;59.23;;;13.20;99.90;;;;;;4347654;33;20185;-65
2021/10/15 03:28:30;;;;;;;63.73;59.07;;;13.20;99.90;;;;;;4347720;33;20161;-65
2021/10/15 03:30:57;;;;;;;63.50;58.57;;;13.10;99.90;;;;;;4347824;33;20621;-68
2021/10/15 03:33:24;;;;;;;64.97;60.80;;;13.00;99.90;;;;;;4347195;33;20157;-65
2021/10/15 03:35:52;;;;;;;71.93;67.03;;;13.00;99.90;;;;;;4347073;33;20176;-66
2021/10/15 03:38:19;;;;;;;71.67;67.07;;;13.10;99.90;;;;;;4333130;33;20176;-65
2021/10/15 03:40:46;;;;;;;68.87;64.47;;;13.00;99.90;;;;;;4339565;33;20176;-65
2021/10/15 03:43:13;;;;;;;62.93;58.63;;;13.10;99.90;;;;;;4346840;33;20478;-67
2021/10/15 03:45:40;;;;;;;66.27;61.80;;;13.10;99.90;;;;;;4346815;33;20183;-64
2021/10/15 03:48:06;;;;;;;66.53;62.23;;;13.10;99.90;;;;;;4347224;33;20172;-67
2021/10/15 03:50:33;;;;;;;72.37;67.70;;;13.20;99.90;;;;;;4346535;33;20165;-66
2021/10/15 03:53:02;;;;;;;70.50;65.50;;;13.20;99.90;;;;;;4347589;33;20168;-67
2021/10/15 03:55:29;;;;;;;62.23;58.43;;;13.20;99.90;;;;;;4348579;33;20176;-64
2021/10/15 03:57:56;;;;;;;65.63;61.20;;;13.20;99.90;;;;;;4346848;33;20157;-65
2021/10/15 04:00:23;;;;;;;66.47;62.13;;;13.20;99.90;;;;;;4347777;33;20150;-68
2021/10/15 04:02:50;;;;;;;68.13;63.17;;;13.20;99.90;;;;;;4347357;33;20137;-66
2021/10/15 04:05:17;;;;;;;67.70;63.00;;;13.20;99.90;;;;;;4348250;33;20168;-65
2021/10/15 04:07:44;;;;;;;66.20;61.83;;;13.20;99.90;;;;;;4348991;33;20172;-65
2021/10/15 04:10:15;;;;;;;69.17;64.67;;;13.30;99.90;;;;;;4346424;33;20250;-67
2021/10/15 04:12:43;;;;;;;62.57;58.33;;;13.30;99.90;;;;;;4347711;33;20164;-65
2021/10/15 04:15:11;;;;;;;68.47;63.50;;;13.30;99.90;;;;;;4347361;33;20157;-68
2021/10/15 04:17:38;;;;;;;64.07;59.97;;;13.30;99.90;;;;;;4332615;33;20146;-65
2021/10/15 04:20:06;;;;;;;62.83;58.77;;;13.30;99.90;;;;;;4337566;33;20513;-65
2021/10/15 04:22:34;;;;;;;64.30;59.50;;;13.40;99.90;;;;;;4348742;33;20183;-65
2021/10/15 04:25:01;;;;;;;70.30;65.63;;;13.30;99.90;;;;;;4346767;33;20204;-64
2021/10/15 04:27:29;;;;;;;64.57;60.13;;;13.30;99.90;;;;;;4345713;33;20165;-65
2021/10/15 04:29:56;;;;;;;74.30;69.70;;;13.20;99.90;;;;;;4346034;33;20160;-65
2021/10/15 04:32:23;;;;;;;71.50;66.37;;;13.20;99.90;;;;;;4347541;33;20201;-64
2021/10/15 04:34:50;;;;;;;71.30;66.70;;;13.10;99.90;;;;;;4347803;33;20604;-64
2021/10/15 04:37:17;;;;;;;67.07;62.67;;;13.10;99.90;;;;;;4346882;33;20550;-64
2021/10/15 04:39:43;;;;;;;68.00;63.40;;;13.10;99.90;;;;;;4347536;33;20205;-65
2021/10/15 04:42:10;;;;;;;69.07;64.47;;;13.10;99.90;;;;;;4346390;33;20163;-65
2021/10/15 04:44:38;;;;;;;72.83;68.23;;;13.20;99.90;;;;;;4346084;33;20157;-65
2021/10/15 04:47:05;;;;;;;70.70;66.10;;;13.20;99.90;;;;;;4347493;33;20158;-65
2021/10/15 04:49:35;;;;;;;69.47;64.67;;;13.20;99.90;;;;;;4348254;33;20158;-65
2021/10/15 04:52:02;;;;;;;70.00;65.27;;;13.20;99.90;;;;;;4347223;33;20157;-64
2021/10/15 04:54:31;;;;;;;73.90;68.60;;;13.20;99.90;;;;;;4346537;33;20154;-65
2021/10/15 04:56:58;;;;;;;72.47;67.53;;;13.20;99.90;;;;;;4345965;33;20554;-65
2021/10/15 04:59:28;;;;;;;75.40;70.50;;;13.20;99.90;;;;;;4346800;33;20149;-65
2021/10/15 05:01:59;;;;;;;70.30;65.00;;;13.20;99.90;;;;;;4344269;33;20222;-68
2021/10/15 05:04:26;;;;;;;67.37;62.23;;;13.20;99.90;;;;;;4345690;33;20153;-65
2021/10/15 05:06:57;;;;;;;76.17;70.10;;;13.20;99.90;;;;;;4346558;33;20153;-65
2021/10/15 05:09:35;;;;;;;72.17;67.33;;;13.20;99.90;;;;;;4336057;33;20173;-65
2021/10/15 05:12:03;;;;;;;75.40;70.27;;;13.20;99.90;;;;;;4340725;33;20165;-67
2021/10/15 05:14:32;;;;;;;70.93;66.07;;;13.30;99.90;;;;;;4337443;33;20196;-64
2021/10/15 05:17:03;;;;;;;76.83;72.03;;;13.30;99.90;;;;;;4338708;33;20497;-67
2021/10/15 05:19:34;;;;;;;68.47;64.20;;;13.30;99.90;;;;;;4337965;33;20184;-65
2021/10/15 05:22:02;;;;;;;69.43;64.57;;;13.30;99.90;;;;;;4340336;33;20184;-64
2021/10/15 05:24:31;;;;;;;65.03;60.93;;;13.40;99.90;;;;;;4339644;33;20242;-66
2021/10/15 05:26:58;;;;;;;67.40;63.00;;;13.30;99.90;;;;;;4338047;33;20510;-64
2021/10/15 05:29:30;;;;;;;65.70;61.67;;;13.40;99.90;;;;;;4338588;33;20158;-67
2021/10/15 05:31:57;;;;;;;63.47;59.37;;;13.40;99.90;;;;;;4341170;33;20194;-66
2021/10/15 05:34:26;;;;;;;66.97;62.80;;;13.40;99.90;;;;;;4338601;33;20166;-65
2021/10/15 05:36:55;;;;;;;65.67;61.77;;;13.40;99.90;;;;;;4338651;33;20188;-67
2021/10/15 05:39:22;;;;;;;60.37;56.60;;;13.40;99.90;;;;;;4339545;33;20176;-66
2021/10/15 05:41:49;;;;;;;60.93;56.73;;;13.40;99.90;;;;;;4339235;33;20573;-66
2021/10/15 05:44:21;;;;;;;61.00;56.27;;;13.40;99.90;;;;;;4338351;33;20211;-64
2021/10/15 05:46:48;;;;;;;61.20;56.97;;;13.40;99.90;;;;;;4338122;33;20149;-65
2021/10/15 05:49:16;;;;;;;59.73;55.73;;;13.40;99.90;;;;;;4339907;33;20216;-65
2021/10/15 05:51:48;;;;;;;65.67;61.33;;;13.40;99.90;;;;;;4339873;33;20164;-65
2021/10/15 05:54:22;;;;;;;68.40;63.73;;;13.30;99.90;;;;;;4338742;33;20242;-64
2021/10/15 05:57:03;;;;;;;68.10;63.27;;;13.30;99.90;;;;;;4338517;33;20622;-65
2021/10/15 05:59:29;;;;;;;62.77;58.03;;;13.20;99.90;;;;;;4337081;33;20207;-65
2021/10/15 06:02:01;;;;;;;68.73;64.43;;;13.10;99.90;;;;;;4337529;33;20157;-64
2021/10/15 06:15:32;;;;;;;67.53;62.97;;;13.00;99.90;;;;;;4338346;33;20523;-65
2021/10/15 06:17:59;;;;;;;66.87;62.53;;;13.00;99.90;;;;;;4339920;33;20221;-64
2021/10/15 06:20:26;;;;;;;61.53;57.63;;;13.00;99.90;;;;;;4339981;33;20604;-64
2021/10/15 06:22:54;;;;;;;64.37;60.50;;;12.90;99.90;;;;;;4342075;33;20204;-64
2021/10/15 06:25:21;;;;;;;61.03;57.17;;;13.00;99.90;;;;;;4340666;33;20183;-64
2021/10/15 06:27:47;;;;;;;54.50;51.40;;;12.90;99.90;;;;;;4346771;33;20157;-64
2021/10/15 06:30:15;;;;;;;51.63;48.97;;;12.90;99.90;;;;;;4344591;33;20509;-65
2021/10/15 06:32:42;;;;;;;61.60;58.60;;;12.80;99.90;;;;;;4345491;33;20188;-64
2021/10/15 06:35:10;;;;;;;61.80;59.17;;;12.40;99.90;;;;;;4345550;33;20157;-66
2021/10/15 06:37:37;;;;;;;77.70;74.30;;;12.30;99.90;;;;;;4345543;33;20164;-64
2021/10/15 06:40:06;;;;;;;70.03;67.13;;;12.20;99.90;;;;;;4345428;33;20199;-64
2021/10/15 06:42:34;;;;;;;62.27;59.57;;;12.10;99.90;;;;;;4347180;33;20161;-64
2021/10/15 06:45:01;;;;;;;64.23;61.33;;;12.10;99.90;;;;;;4347196;33;20589;-64
2021/10/15 06:47:28;;;;;;;68.33;65.53;;;12.00;99.90;;;;;;4347116;33;20195;-64
2021/10/15 06:49:55;;;;;;;67.33;64.40;;;12.00;99.90;;;;;;4346222;33;20149;-64
2021/10/15 06:52:22;;;;;;;65.27;62.67;;;11.80;99.90;;;;;;4345545;33;20176;-63
2021/10/15 06:54:49;;;;;;;74.63;71.47;;;11.80;99.90;;;;;;4345378;33;20183;-64
2021/10/15 06:57:18;;;;;;;63.77;61.17;;;11.60;99.90;;;;;;4345370;33;20158;-64
2021/10/15 06:59:44;;;;;;;81.07;77.67;;;11.60;99.90;;;;;;4345521;33;20161;-64
2021/10/15 07:02:11;;;;;;;80.37;77.07;;;11.50;99.90;;;;;;4347051;33;20205;-64
2021/10/15 07:04:38;;;;;;;77.37;73.47;;;11.40;99.90;;;;;;4345324;33;20153;-64
2021/10/15 07:07:05;;;;;;;93.43;89.70;;;11.40;99.90;;;;;;4346828;33;20508;-64
2021/10/15 07:09:32;;;;;;;90.00;86.13;;;11.30;99.90;;;;;;4345483;33;20199;-64
2021/10/15 07:11:59;;;;;;;83.37;79.77;;;11.30;99.90;;;;;;4347041;33;20144;-64
2021/10/15 07:14:27;;;;;;;92.00;87.73;;;11.30;99.90;;;;;;4345295;33;20149;-64
2021/10/15 07:16:54;;;;;;;91.53;87.67;;;11.30;99.90;;;;;;4345480;33;20160;-64
2021/10/15 07:19:22;;;;;;;95.73;91.23;;;11.30;99.90;;;;;;4346333;33;20156;-64
2021/10/15 07:21:49;;;;;;;81.13;77.53;;;11.30;99.90;;;;;;4349547;33;20145;-64
2021/10/15 07:24:16;;;;;;;102.53;97.63;;;11.30;99.90;;;;;;4347833;33;20153;-64
2021/10/15 07:26:43;;;;;;;107.43;102.70;;;11.30;99.90;;;;;;4347576;33;20186;-64
2021/10/15 07:29:10;;;;;;;96.77;92.60;;;11.30;99.90;;;;;;4349371;33;20176;-64
2021/10/15 07:31:38;;;;;;;85.97;82.10;;;11.30;99.90;;;;;;4347879;33;20149;-64
2021/10/15 07:34:08;;;;;;;102.73;98.07;;;11.40;99.90;;;;;;4348109;33;20566;-65
2021/10/15 07:36:37;;;;;;;102.70;98.17;;;11.30;99.90;;;;;;4348148;33;20459;-65
2021/10/15 07:39:04;;;;;;;109.73;104.93;;;11.40;99.90;;;;;;4348535;33;20164;-65
2021/10/15 07:41:31;;;;;;;106.17;101.47;;;11.50;99.90;;;;;;4349381;33;20607;-65
2021/10/15 07:43:58;;;;;;;112.23;107.23;;;11.50;99.90;;;;;;4349291;33;20478;-65
2021/10/15 07:46:30;;;;;;;107.53;102.60;;;11.60;99.90;;;;;;4347568;33;20229;-65
2021/10/15 07:48:59;;;;;;;127.40;122.10;;;11.50;99.90;;;;;;4348745;33;20172;-65
2021/10/15 07:51:25;;;;;;;118.73;113.33;;;11.40;99.90;;;;;;4349279;33;20152;-65
2021/10/15 07:53:52;;;;;;;119.33;113.67;;;11.50;99.90;;;;;;4347406;33;20201;-65
2021/10/15 07:56:19;;;;;;;126.47;121.17;;;11.50;99.90;;;;;;4348201;33;20179;-65
2021/10/15 07:58:46;;;;;;;131.33;125.53;;;11.50;99.90;;;;;;4347561;33;20477;-65
2021/10/15 08:01:13;;;;;;;129.63;123.73;;;11.60;99.90;;;;;;4348864;33;20532;-65
2021/10/15 08:03:40;;;;;;;130.67;124.83;;;11.60;99.90;;;;;;4347371;33;20164;-65
2021/10/15 08:06:13;;;;;;;125.83;120.17;;;11.60;99.90;;;;;;4347391;33;20145;-65
2021/10/15 08:08:40;;;;;;;120.67;115.23;;;11.60;99.90;;;;;;4348535;33;20145;-65
2021/10/15 08:11:07;;;;;;;117.67;112.17;;;11.70;99.90;;;;;;4347294;33;20167;-65
2021/10/15 08:13:35;;;;;;;126.00;120.40;;;11.80;99.90;;;;;;4347659;33;20164;-64
2021/10/15 08:16:03;;;;;;;124.57;119.27;;;12.10;99.90;;;;;;4346969;33;20181;-65
2021/10/15 08:18:30;;;;;;;115.93;110.37;;;12.40;99.90;;;;;;4346847;33;20451;-65
2021/10/15 08:20:58;;;;;;;106.90;102.13;;;12.50;99.90;;;;;;4347184;33;20145;-65
2021/10/15 08:23:30;;;;;;;106.87;102.03;;;12.30;99.90;;;;;;4347839;33;20454;-65
2021/10/15 08:25:57;;;;;;;99.23;94.33;;;12.20;99.90;;;;;;4347869;33;20192;-65
2021/10/15 08:28:25;;;;;;;104.60;99.73;;;12.20;99.90;;;;;;4346926;33;20161;-65
2021/10/15 08:30:52;;;;;;;97.20;92.77;;;12.30;99.90;;;;;;4347315;33;20148;-65
2021/10/15 08:33:19;;;;;;;93.80;89.70;;;12.40;99.90;;;;;;4348661;33;20149;-65
2021/10/15 08:35:46;;;;;;;75.97;72.43;;;12.50;99.90;;;;;;4346815;33;20149;-65
2021/10/15 08:38:14;;;;;;;76.83;72.70;;;12.40;99.90;;;;;;4346942;33;20206;-65
2021/10/15 08:40:46;;;;;;;76.93;73.77;;;12.30;99.90;;;;;;4346901;33;20484;-65
2021/10/15 08:43:13;;;;;;;71.57;68.23;;;12.40;99.90;;;;;;4348373;33;20149;-65
2021/10/15 08:45:41;;;;;;;74.37;71.07;;;12.40;99.90;;;;;;4346728;33;20161;-65
2021/10/15 08:48:08;;;;;;;61.47;58.57;;;12.30;99.90;;;;;;4346495;33;20168;-65
2021/10/15 08:50:35;;;;;;;57.53;54.53;;;12.30;99.90;;;;;;4346736;33;20149;-65
2021/10/15 08:53:03;;;;;;;55.50;53.00;;;12.30;99.90;;;;;;4346729;33;20149;-65
2021/10/15 08:55:30;;;;;;;56.43;53.67;;;12.20;99.90;;;;;;4348236;33;20148;-65
2021/10/15 08:58:00;;;;;;;54.43;51.60;;;12.20;99.90;;;;;;4348062;33;20179;-65
2021/10/15 09:00:29;;;;;;;60.87;57.93;;;12.00;99.90;;;;;;4346910;33;20173;-65
2021/10/15 09:03:16;;;;;;;57.33;54.47;;;12.10;99.90;;;;;;4347550;33;20176;-65
2021/10/15 09:05:54;;;;;;;65.70;61.93;;;12.40;99.90;;;;;;4346386;33;20188;-64
2021/10/15 09:08:21;;;;;;;59.97;56.90;;;12.70;99.90;;;;;;4346327;33;20168;-64
2021/10/15 09:10:48;;;;;;;49.77;46.47;;;13.00;99.90;;;;;;4346770;33;20584;-64
2021/10/15 09:13:19;;;;;;;49.30;46.90;;;13.10;99.90;;;;;;4346403;33;20169;-64
2021/10/15 09:15:47;;;;;;;48.23;45.83;;;13.00;99.90;;;;;;4348053;33;20153;-64
2021/10/15 09:18:18;;;;;;;47.27;44.37;;;13.00;99.90;;;;;;4346352;33;20168;-64
2021/10/15 09:20:48;;;;;;;39.03;36.83;;;13.00;99.90;;;;;;4346351;33;20141;-63
2021/10/15 09:23:16;;;;;;;43.63;40.40;;;12.80;99.90;;;;;;4347993;33;20177;-64
2021/10/15 09:25:46;;;;;;;41.77;38.93;;;12.70;99.90;;;;;;4347301;33;20621;-64
2021/10/15 09:28:22;;;;;;;35.10;32.83;;;12.60;99.90;;;;;;4346227;33;20512;-64
2021/10/15 09:30:51;;;;;;;38.07;35.67;;;12.60;99.90;;;;;;4346376;33;20528;-64
2021/10/15 09:33:19;;;;;;;35.70;33.40;;;12.60;99.90;;;;;;4347854;33;20184;-64
2021/10/15 09:35:48;;;;;;;40.10;37.77;;;12.60;99.90;;;;;;4345858;33;20204;-64
2021/10/15 09:38:15;;;;;;;39.17;36.93;;;12.70;99.90;;;;;;4347774;33;20216;-64
2021/10/15 09:40:44;;;;;;;33.67;31.57;;;12.70;99.90;;;;;;4346991;33;20465;-64
2021/10/15 09:43:12;;;;;;;35.83;33.80;;;12.80;99.90;;;;;;4346180;33;20145;-64
2021/10/15 09:45:43;;;;;;;33.20;31.00;;;12.80;99.90;;;;;;4346032;33;20168;-64
2021/10/15 09:48:21;;;;;;;34.10;32.10;;;12.80;99.90;;;;;;4347450;33;20505;-64
2021/10/15 09:51:08;;;;;;;35.60;33.03;;;12.90;99.90;;;;;;4346969;33;20211;-64
2021/10/15 09:53:35;;;;;;;36.13;33.63;;;12.90;99.90;;;;;;4347447;33;20157;-64
2021/10/15 09:56:02;;;;;;;38.40;35.57;;;12.90;99.90;;;;;;4347452;33;20157;-64
2021/10/15 09:58:28;;;;;;;33.33;31.40;;;13.00;99.90;;;;;;4347168;33;20177;-64
2021/10/15 10:00:57;;;;;;;37.60;35.50;;;13.00;99.90;;;;;;4347500;33;20180;-64
2021/10/15 10:03:26;;;;;;;36.40;34.00;;;13.20;99.90;;;;;;4346196;33;20210;-63
2021/10/15 10:05:53;;;;;;;37.70;35.50;;;13.20;99.90;;;;;;4347503;33;20160;-64
2021/10/15 10:08:20;;;;;;;30.77;28.37;;;13.30;99.90;;;;;;4345748;33;20145;-63
2021/10/15 10:10:47;;;;;;;37.10;35.13;;;13.30;99.90;;;;;;4345686;33;20204;-64
2021/10/15 10:13:16;;;;;;;35.33;33.13;;;13.40;99.90;;;;;;4345683;33;20170;-64
2021/10/15 10:15:44;;;;;;;33.13;31.13;;;13.50;99.90;;;;;;4345625;33;20502;-64
2021/10/15 10:18:20;;;;;;;31.47;29.97;;;13.50;99.90;;;;;;4345773;33;20168;-63
2021/10/15 10:20:50;;;;;;;31.77;29.77;;;13.50;99.90;;;;;;4345760;33;20169;-66
2021/10/15 10:23:24;;;;;;;33.67;31.33;;;13.70;99.90;;;;;;4345859;33;20170;-66
2021/10/15 10:25:57;;;;;;;29.23;27.07;;;13.80;99.90;;;;;;4347062;33;20174;-64
2021/10/15 10:28:23;;;;;;;28.03;25.90;;;14.30;99.90;;;;;;4345487;33;20207;-65
2021/10/15 10:30:53;;;;;;;29.70;27.60;;;14.40;99.90;;;;;;4345638;33;20152;-64
2021/10/15 10:33:23;;;;;;;30.03;27.87;;;14.50;99.90;;;;;;4346336;33;20150;-65
2021/10/15 10:35:50;;;;;;;28.10;26.23;;;14.40;99.90;;;;;;4345551;33;20209;-64
2021/10/15 10:38:30;;;;;;;25.23;23.60;;;14.30;99.90;;;;;;4346643;33;20195;-64
2021/10/15 10:41:21;;;;;;;20.00;18.50;;;14.10;99.90;;;;;;4346414;33;20215;-64
2021/10/15 10:44:11;;;;;;;23.13;21.20;;;13.80;99.90;;;;;;4347237;33;20149;-64
2021/10/15 10:46:38;;;;;;;22.47;21.07;;;13.60;99.90;;;;;;4313988;33;20157;-67
2021/10/15 10:49:23;;;;;;;18.67;17.03;;;13.70;99.90;;;;;;4315667;33;20185;-64
2021/10/15 10:52:20;;;;;;;21.57;20.27;;;13.70;99.90;;;;;;4314138;33;20582;-65
2021/10/15 10:54:49;;;;;;;22.00;20.27;;;13.90;99.90;;;;;;4288298;33;20181;-64
2021/10/15 10:57:25;;;;;;;20.47;18.90;;;14.20;99.90;;;;;;4287866;33;20284;-64
2021/10/15 10:59:53;;;;;;;16.27;14.97;;;14.60;99.90;;;;;;4288167;33;20162;-66
2021/10/15 11:02:21;;;;;;;19.50;18.00;;;14.90;99.90;;;;;;4287952;33;20169;-64
2021/10/15 11:05:00;;;;;;;16.17;14.97;;;15.20;99.90;;;;;;4287665;33;20188;-64
2021/10/15 11:07:31;;;;;;;20.20;18.47;;;15.50;99.90;;;;;;4287952;33;20189;-64
2021/10/15 11:10:02;;;;;;;18.43;17.07;;;15.50;99.90;;;;;;4288786;33;20592;-64
2021/10/15 11:13:02;;;;;;;19.20;17.97;;;15.10;99.90;;;;;;4287766;33;20189;-64
2021/10/15 11:15:35;;;;;;;17.00;15.77;;;14.70;99.90;;;;;;4287607;33;20563;-66
2021/10/15 11:18:04;;;;;;;21.07;19.67;;;14.30;99.90;;;;;;4287469;33;20200;-64
2021/10/15 11:20:40;;;;;;;15.77;14.73;;;14.00;99.90;;;;;;4287787;33;20170;-63
2021/10/15 11:23:10;;;;;;;17.33;16.37;;;13.70;99.90;;;;;;4292329;33;20169;-64
2021/10/15 11:25:39;;;;;;;20.30;18.73;;;13.50;99.90;;;;;;4303781;33;20174;-64
2021/10/15 11:28:08;;;;;;;21.60;20.07;;;13.10;99.90;;;;;;4302563;33;20158;-64
2021/10/15 11:30:40;;;;;;;20.10;18.60;;;12.90;99.90;;;;;;4325988;33;20168;-64
2021/10/15 11:33:08;;;;;;;22.07;20.03;;;12.90;99.90;;;;;;4347835;33;20199;-64
2021/10/15 11:35:42;;;;;;;24.00;22.07;;;13.10;99.90;;;;;;4349483;33;20159;-66
2021/10/15 11:38:19;;;;;;;25.87;23.93;;;13.30;99.90;;;;;;4347834;33;20165;-67
2021/10/15 11:40:47;;;;;;;20.57;18.87;;;13.60;99.90;;;;;;4347778;33;20188;-67
2021/10/15 11:43:22;;;;;;;23.57;21.80;;;14.10;99.90;;;;;;4347756;33;20181;-66
2021/10/15 11:45:58;;;;;;;21.57;19.77;;;14.80;99.90;;;;;;4349541;33;20140;-69
2021/10/15 11:48:29;;;;;;;18.03;16.80;;;15.20;99.90;;;;;;4348041;33;20158;-64
2021/10/15 11:50:59;;;;;;;16.33;15.23;;;15.20;99.90;;;;;;4348172;33;20152;-65
2021/10/15 11:53:30;;;;;;;18.93;17.43;;;15.00;99.90;;;;;;4347521;33;20148;-67
2021/10/15 11:56:05;;;;;;;19.70;17.67;;;14.50;99.90;;;;;;4349200;33;20149;-67
2021/10/15 11:58:40;;;;;;;20.63;15.67;;;14.10;99.90;;;;;;4347473;33;20235;-65
2021/10/15 12:01:19;;;;;;;23.00;20.87;;;13.70;99.90;;;;;;4347532;33;20149;-65
2021/10/15 12:03:50;;;;;;;18.33;16.57;;;13.80;99.90;;;;;;4347403;33;20184;-65
2021/10/15 12:06:34;;;;;;;19.77;17.97;;;13.70;99.90;;;;;;4348201;33;20154;-64
2021/10/15 12:09:03;;;;;;;21.77;19.47;;;13.50;99.90;;;;;;4346276;33;20196;-66
2021/10/15 12:11:47;;;;;;;21.90;19.57;;;13.30;99.90;;;;;;4347314;33;20192;-65
2021/10/15 12:14:17;;;;;;;20.37;18.30;;;13.20;99.90;;;;;;4348076;33;20542;-64
2021/10/15 12:16:52;;;;;;;25.00;22.47;;;13.00;99.90;;;;;;4348138;33;20212;-63
2021/10/15 12:19:24;;;;;;;25.83;23.33;;;13.00;99.90;;;;;;4347502;33;20171;-63
2021/10/15 12:22:01;;;;;;;23.23;21.07;;;13.20;99.90;;;;;;4347672;33;20205;-65
2021/10/15 12:24:31;;;;;;;22.10;19.83;;;13.40;99.90;;;;;;4347254;33;20149;-65
2021/10/15 12:27:18;;;;;;;25.10;22.73;;;13.50;99.90;;;;;;4346748;33;20169;-67
2021/10/15 12:29:52;;;;;;;25.10;23.20;;;13.90;99.90;;;;;;4347954;33;20469;-66
2021/10/15 12:32:22;;;;;;;20.67;17.13;;;14.50;99.90;;;;;;4348015;33;20168;-66
2021/10/15 12:35:07;;;;;;;22.27;20.17;;;14.80;99.90;;;;;;4347039;33;20168;-69
2021/10/15 12:37:40;;;;;;;21.33;16.27;;;15.40;99.90;;;;;;4347239;33;20221;-65
2021/10/15 12:40:16;;;;;;;19.30;16.73;;;15.80;99.90;;;;;;4347086;33;20211;-68
2021/10/15 12:42:45;;;;;;;19.13;14.10;;;15.70;99.90;;;;;;4346397;32;20521;-65
2021/10/15 12:45:15;;;;;;;15.57;13.93;;;15.70;99.90;;;;;;4344545;33;20149;-66
2021/10/15 12:47:53;;;;;;;15.57;13.87;;;15.50;99.90;;;;;;4347488;33;20171;-68
2021/10/15 12:50:20;;;;;;;19.00;15.63;;;15.20;99.90;;;;;;4343683;33;20159;-65